Warning: Javascript must be enabled to use all the features on this page!


Page Loading - Please Wait...

Click to hideNews Bulletins

Peak Streamflow for the Nation

USGS 10349300 STEAMBOAT CK AT STEAMBOAT, NV

Washoe County, Nevada
Hydrologic Unit Code 16050102
Latitude  39°22'37.68", Longitude 119°44'37.17" NAD83
Drainage area 123  square miles
Gage datum 4,600.00 feet above NGVD29
Output formats
Table
Graph
Tab-separated file
peakfq (watstore) format
Reselect output format
Water
Year
Date Gage
Height
(feet)
Stream-
flow
(cfs)
1962 1962-02-09 3.69 2806
1963 1963-01-31 5.44 1,0006
1964 1964-05-26 1.89 52.06
1965 1965-08-15 4.23 5106
1966 1966-03-15 1.92 51.06
1967 1967-03-16 3.80 3846
1968 1968-03-12 2.10 73.06
1969 1969-01-26 4.20 5806
1970 1970-01-27 3.69 4006
1971 1971-05-27 2.27 98.06
1972 1971-12-22 1.93 68.06
1973 1973-01-16 2.51 1296
1974 1974-01-17 2.44 1216
1975 1975-03-25 2.61 1466
1976 1975-10-10 1.94 56.06
1977 1977-02-21 1.89 57.06
1978 1977-12-17 2.41 1196
1979 1979-02-13 2.69 1556
1980 1980-01-13 4.29 5286
1981 1980-12-04 1.69 28.06
1982 1981-12-20 3.83 3856
1983 1983-03-13 4.30 6186
1984 1983-11-25 3.52 3536
1985 1985-02-08 2.87 1826
1986 1986-02-17 6.79 3,6002,6
1987 1987-02-13 2.21 75.06
1988 1988-01-10 1.212 7.806
1989 1989-06-04 2.12 66.06
1990 1989-11-25 1.70 28.06
1991 1991-07-01 2.26 68.06
1992 1991-10-26 1.80 35.06
1993 1993-01-21 3.29 2456
1994 1994-05-07 1.77 32.06
1995 1995-03-10 4.58 7886
1996 1996-02-04 4.01 4496
1997 1997-01-01 6.03 2,0906
1998 1998-03-24 3.99 4906
1999 1999-02-09 4.06 5026
2000 2000-02-14 2.25 66.06
2001 2000-11-29 1.27 9.606
2002 2001-11-24 1.85 36.06
2003 2003-05-28 1.96 44.06
2004 2004-02-25 2.00 47.06
2005 2005-05-27 2.27 69.06
2006 2005-12-31 6.79 3,6006
2007 2007-02-11 2.27 69.06
2008 2008-01-04 2.57 1016
2009 2009-03-02 2.54 97.06
2010 2009-10-13 2.88 1496
2011 2010-10-24 3.39 2616
2012 2012-01-21 2.81 1376
2013 2012-12-02 3.18 2076
2014 2014-02-09 1.52 17.06
2015 2015-07-07 2.21 61.06
2016 2016-01-30 2.27 67.06
2017 2017-01-10 5.63R 1,6306,R
2018 2018-03-22 3.76 4826
2019 2019-02-14 3.35 3826
2020 2019-12-07 1.82 88.66
?
  Peak Gage-Height Qualification Codes.
?
  Peak Streamflow Qualification Codes.